Time;durP1;ratioP1;P1;durP2;ratioP2;P2;SDS_P1;SDS_P2;PMS_P1;PMS_P2;Temp;Humidity;BMP_temperature;BMP_pressure;BME280_temperature;BME280_humidity;BME280_pressure;Samples;Min_cycle;Max_cycle;Signal;HPM_P1;HPM_P2
2022/05/05 00:01:07;;;;;;;12.63;11.32;;;;;;;;;;4938055;29;20035;-80
2022/05/05 00:03:33;;;;;;;15.40;13.88;;;;;;;;;;4937290;29;20123;-83
2022/05/05 00:05:59;;;;;;;12.35;11.18;;;;;;;;;;4936702;29;20165;-79
2022/05/05 00:08:25;;;;;;;12.23;11.00;;;;;;;;;;4936625;29;20028;-84
2022/05/05 00:16:22;;;;;;;12.10;10.93;;;;;;;;;;4938350;29;20060;-84
2022/05/05 00:18:48;;;;;;;11.30;10.20;;;;;;;;;;4938003;29;20393;-83
2022/05/05 00:21:15;;;;;;;11.05;9.82;;;;;;;;;;4936462;29;20085;-83
2022/05/05 00:23:41;;;;;;;15.60;13.95;;;;;;;;;;4937108;29;20042;-81
2022/05/05 00:26:07;;;;;;;12.38;10.85;;;;;;;;;;4936227;29;20091;-78
2022/05/05 00:28:33;;;;;;;11.45;10.40;;;;;;;;;;4936035;29;20507;-80
2022/05/05 00:30:59;;;;;;;11.07;9.88;;;;;;;;;;4937547;29;20066;-78
2022/05/05 00:33:25;;;;;;;10.38;9.38;;;;;;;;;;4937131;29;20031;-84
2022/05/05 00:35:52;;;;;;;10.18;8.88;;;;;;;;;;4935777;29;20027;-85
2022/05/05 00:38:18;;;;;;;11.20;8.48;;;;;;;;;;4935851;29;20035;-85
2022/05/05 00:40:44;;;;;;;10.45;9.45;;;;;;;;;;4936211;29;20366;-84
2022/05/05 00:43:10;;;;;;;8.85;8.05;;;;;;;;;;4937520;29;20023;-79
2022/05/05 00:45:37;;;;;;;9.55;8.57;;;;;;;;;;4936980;29;20036;-83
2022/05/05 00:48:07;;;;;;;9.05;8.15;;;;;;;;;;4936119;29;20032;-77
2022/05/05 00:50:34;;;;;;;12.77;10.80;;;;;;;;;;4937583;29;20028;-84
2022/05/05 00:53:01;;;;;;;8.57;7.80;;;;;;;;;;4936246;29;20079;-79
2022/05/05 00:55:28;;;;;;;10.02;9.02;;;;;;;;;;4937142;29;20050;-80
2022/05/05 00:57:54;;;;;;;9.82;8.90;;;;;;;;;;4936010;29;20115;-81
2022/05/05 01:00:20;;;;;;;9.25;8.25;;;;;;;;;;4935502;29;20611;-80
2022/05/05 01:02:47;;;;;;;9.38;7.93;;;;;;;;;;4936902;29;20020;-81
2022/05/05 01:05:13;;;;;;;11.48;9.18;;;;;;;;;;4934951;29;20059;-82
2022/05/05 01:07:39;;;;;;;12.23;11.02;;;;;;;;;;4935364;29;20046;-82
2022/05/05 01:10:06;;;;;;;10.23;9.10;;;;;;;;;;4935134;29;20175;-80
2022/05/05 01:12:33;;;;;;;8.70;7.80;;;;;;;;;;4934667;29;20031;-77
2022/05/05 01:15:00;;;;;;;11.90;9.30;;;;;;;;;;4934841;29;20412;-80
2022/05/05 01:17:29;;;;;;;8.70;7.80;;;;;;;;;;4934607;29;20019;-82
2022/05/05 01:19:55;;;;;;;7.47;6.78;;;;;;;;;;4935028;29;20028;-83
2022/05/05 01:22:25;;;;;;;7.57;6.85;;;;;;;;;;4934965;29;20099;-83
2022/05/05 01:30:21;;;;;;;9.18;8.30;;;;;;;;;;4936088;29;20159;-83
2022/05/05 01:32:47;;;;;;;7.90;6.93;;;;;;;;;;4936298;29;20032;-78
2022/05/05 01:35:13;;;;;;;7.65;6.90;;;;;;;;;;4934268;29;20048;-83
2022/05/05 01:37:40;;;;;;;8.00;7.20;;;;;;;;;;4934898;29;20548;-79
2022/05/05 01:40:06;;;;;;;7.18;6.35;;;;;;;;;;4935383;29;20042;-77
2022/05/05 01:42:32;;;;;;;8.82;7.05;;;;;;;;;;4934775;29;20031;-79
2022/05/05 01:44:59;;;;;;;9.45;6.57;;;;;;;;;;4934580;29;20046;-78
2022/05/05 01:47:25;;;;;;;8.45;6.80;;;;;;;;;;4935845;29;20606;-82
2022/05/05 01:49:51;;;;;;;7.65;6.95;;;;;;;;;;4934090;29;20028;-84
2022/05/05 01:52:18;;;;;;;8.40;7.40;;;;;;;;;;4935742;29;20107;-83
2022/05/05 01:54:44;;;;;;;7.75;7.00;;;;;;;;;;4935631;29;20046;-82
2022/05/05 01:57:10;;;;;;;7.97;7.18;;;;;;;;;;4935385;29;20071;-81
2022/05/05 01:59:37;;;;;;;7.60;6.35;;;;;;;;;;4935861;29;20027;-83
2022/05/05 02:02:04;;;;;;;7.80;6.95;;;;;;;;;;4935344;29;20027;-81
2022/05/05 02:04:30;;;;;;;7.32;6.63;;;;;;;;;;4936264;29;20134;-83
2022/05/05 02:06:56;;;;;;;7.35;6.65;;;;;;;;;;4936662;29;20098;-83
2022/05/05 02:09:23;;;;;;;10.00;7.13;;;;;;;;;;4936518;29;20035;-83
2022/05/05 02:11:49;;;;;;;8.05;7.07;;;;;;;;;;4919574;29;20028;-81
2022/05/05 02:14:16;;;;;;;8.95;8.10;;;;;;;;;;4919148;29;20031;-82
2022/05/05 02:16:42;;;;;;;7.45;6.75;;;;;;;;;;4919643;29;20047;-82
2022/05/05 02:19:08;;;;;;;7.80;6.88;;;;;;;;;;4919204;29;20051;-78
2022/05/05 02:21:34;;;;;;;7.55;6.85;;;;;;;;;;4918626;29;20028;-83
2022/05/05 02:24:01;;;;;;;10.48;7.10;;;;;;;;;;4918979;29;20036;-82
2022/05/05 02:26:27;;;;;;;8.80;7.18;;;;;;;;;;4918660;29;20110;-83
2022/05/05 02:28:53;;;;;;;8.18;7.18;;;;;;;;;;4918759;29;20118;-84
2022/05/05 02:31:19;;;;;;;10.00;7.70;;;;;;;;;;4935566;29;20024;-83
2022/05/05 02:33:45;;;;;;;8.32;6.95;;;;;;;;;;4935873;29;20512;-83
2022/05/05 02:38:57;;;;;;;8.75;7.50;;;;;;;;;;4936316;29;20042;-82
2022/05/05 02:41:23;;;;;;;8.93;7.35;;;;;;;;;;4918898;29;20484;-83
2022/05/05 02:43:49;;;;;;;7.80;6.85;;;;;;;;;;4919455;29;20082;-82
2022/05/05 02:46:16;;;;;;;8.73;7.72;;;;;;;;;;4919372;29;20032;-85
2022/05/05 02:48:42;;;;;;;8.43;7.20;;;;;;;;;;4919741;29;20028;-82
2022/05/05 02:51:09;;;;;;;11.05;8.02;;;;;;;;;;4919539;29;20032;-85
2022/05/05 02:56:20;;;;;;;7.25;6.60;;;;;;;;;;4936297;29;20043;-85
2022/05/05 02:58:46;;;;;;;8.88;7.90;;;;;;;;;;4919429;29;20503;-82
2022/05/05 03:01:13;;;;;;;9.82;7.63;;;;;;;;;;4921583;29;20031;-82
2022/05/05 03:03:39;;;;;;;8.40;7.38;;;;;;;;;;4922457;29;20023;-84
2022/05/05 03:06:05;;;;;;;8.32;7.47;;;;;;;;;;4935761;29;20044;-83
2022/05/05 03:08:31;;;;;;;8.00;7.13;;;;;;;;;;4938152;29;20066;-81
2022/05/05 03:10:57;;;;;;;9.18;6.93;;;;;;;;;;4938345;29;20086;-84
2022/05/05 03:13:24;;;;;;;8.85;8.00;;;;;;;;;;4938086;29;20031;-83
2022/05/05 03:15:50;;;;;;;14.88;12.00;;;;;;;;;;4939243;29;20469;-85
2022/05/05 03:18:16;;;;;;;11.05;9.93;;;;;;;;;;4938254;29;20032;-86
2022/05/05 03:20:42;;;;;;;12.50;10.98;;;;;;;;;;4937680;29;20047;-78
2022/05/05 03:23:09;;;;;;;12.30;11.00;;;;;;;;;;4937572;29;20448;-80
2022/05/05 03:25:35;;;;;;;14.75;13.18;;;;;;;;;;4937668;29;20454;-78
2022/05/05 03:28:01;;;;;;;15.93;14.32;;;;;;;;;;4938795;29;20032;-79
2022/05/05 03:30:28;;;;;;;12.70;11.40;;;;;;;;;;4937460;29;20028;-86
2022/05/05 03:32:55;;;;;;;13.23;11.88;;;;;;;;;;4937700;29;20050;-87
2022/05/05 03:35:21;;;;;;;12.57;11.48;;;;;;;;;;4937442;29;20019;-87
2022/05/05 03:37:47;;;;;;;18.42;16.63;;;;;;;;;;4937736;29;20118;-88
2022/05/05 03:40:13;;;;;;;13.52;12.13;;;;;;;;;;4937811;29;20733;-81
2022/05/05 03:42:39;;;;;;;14.35;12.60;;;;;;;;;;4940843;29;20035;-81
2022/05/05 03:45:07;;;;;;;14.30;12.93;;;;;;;;;;4938084;29;20039;-86
2022/05/05 03:47:33;;;;;;;13.55;12.25;;;;;;;;;;4938351;29;20393;-88
2022/05/05 03:49:59;;;;;;;12.82;11.55;;;;;;;;;;4937457;29;20028;-88
2022/05/05 03:52:26;;;;;;;14.75;13.35;;;;;;;;;;4937685;29;20450;-89
2022/05/05 03:54:52;;;;;;;14.20;12.70;;;;;;;;;;4937765;29;20122;-81
2022/05/05 03:57:21;;;;;;;13.50;12.30;;;;;;;;;;4938638;29;20024;-87
2022/05/05 03:59:47;;;;;;;12.80;11.50;;;;;;;;;;4940412;29;20540;-84
2022/05/05 04:02:13;;;;;;;11.75;10.65;;;;;;;;;;4938184;29;20034;-87
2022/05/05 04:04:39;;;;;;;11.88;10.68;;;;;;;;;;4937709;29;20417;-88
2022/05/05 04:07:06;;;;;;;12.05;10.45;;;;;;;;;;4938804;29;20023;-85
2022/05/05 04:09:32;;;;;;;17.70;13.88;;;;;;;;;;4937870;29;20024;-85
2022/05/05 04:11:58;;;;;;;14.48;12.00;;;;;;;;;;4936926;29;20032;-87
2022/05/05 04:14:25;;;;;;;15.23;13.73;;;;;;;;;;4937722;29;20086;-84
2022/05/05 04:16:51;;;;;;;12.60;11.40;;;;;;;;;;4940026;29;20027;-87
2022/05/05 04:19:18;;;;;;;12.57;11.38;;;;;;;;;;5086376;23;20018;-85
2022/05/05 04:21:44;;;;;;;12.35;11.20;;;;;;;;;;4926062;29;20038;-86
2022/05/05 04:24:10;;;;;;;13.32;11.95;;;;;;;;;;4957235;29;20341;-87
2022/05/05 04:26:37;;;;;;;13.48;12.20;;;;;;;;;;4956840;29;20070;-86
2022/05/05 04:29:03;;;;;;;12.30;11.00;;;;;;;;;;4970938;23;20050;-82
2022/05/05 04:31:33;;;;;;;12.85;11.55;;;;;;;;;;4902598;29;20036;-89
2022/05/05 04:34:07;;;;;;;15.40;12.73;;;;;;;;;;4903222;29;20127;-92
2022/05/05 04:36:35;;;;;;;14.43;12.93;;;;;;;;;;4903543;29;20060;-87
2022/05/05 04:39:09;;;;;;;14.60;13.27;;;;;;;;;;4903499;29;20025;-86
2022/05/05 04:41:41;;;;;;;;;;;;;;;;;;4903268;29;20020;-83
2022/05/05 04:44:07;;;;;;;14.98;13.57;;;;;;;;;;4901939;29;19915;-84
2022/05/05 04:46:33;;;;;;;14.65;13.25;;;;;;;;;;4919400;29;20481;-85
2022/05/05 04:49:00;;;;;;;14.10;12.73;;;;;;;;;;4902067;29;20024;-84
2022/05/05 04:51:26;;;;;;;15.15;13.55;;;;;;;;;;4901951;29;20079;-84
2022/05/05 04:53:52;;;;;;;15.52;13.23;;;;;;;;;;4917157;29;20032;-83
2022/05/05 04:56:18;;;;;;;13.68;12.30;;;;;;;;;;4917516;29;20386;-82
2022/05/05 04:58:44;;;;;;;15.18;13.10;;;;;;;;;;4918820;29;20024;-80
2022/05/05 05:01:10;;;;;;;12.65;11.43;;;;;;;;;;4905544;29;20025;-80
2022/05/05 05:03:37;;;;;;;15.00;13.15;;;;;;;;;;4900991;29;20028;-83
2022/05/05 05:06:07;;;;;;;12.75;11.40;;;;;;;;;;4901188;29;20401;-81
2022/05/05 05:08:34;;;;;;;11.55;10.45;;;;;;;;;;4916625;29;20028;-82
2022/05/05 05:11:00;;;;;;;12.07;10.85;;;;;;;;;;4918465;29;20032;-82
2022/05/05 05:13:26;;;;;;;12.82;11.45;;;;;;;;;;4918219;29;20020;-83
2022/05/05 05:15:52;;;;;;;12.77;11.38;;;;;;;;;;4901260;29;20086;-82
2022/05/05 05:18:19;;;;;;;15.88;13.40;;;;;;;;;;4900637;29;20070;-81
2022/05/05 05:20:45;;;;;;;13.50;12.10;;;;;;;;;;4917572;29;20024;-82
2022/05/05 05:23:11;;;;;;;11.43;10.13;;;;;;;;;;4917706;29;20028;-81
2022/05/05 05:25:37;;;;;;;13.40;12.10;;;;;;;;;;4900788;29;20044;-81
2022/05/05 05:28:03;;;;;;;14.65;13.02;;;;;;;;;;4919235;29;20024;-81
2022/05/05 05:30:29;;;;;;;10.75;9.43;;;;;;;;;;4900716;29;20114;-81
2022/05/05 05:32:56;;;;;;;12.30;9.15;;;;;;;;;;4900615;29;20508;-81
2022/05/05 05:35:23;;;;;;;12.27;10.65;;;;;;;;;;4900283;29;20036;-81
2022/05/05 05:37:51;;;;;;;12.27;10.43;;;;;;;;;;4900344;29;20024;-81
2022/05/05 05:40:17;;;;;;;10.75;8.57;;;;;;;;;;4917185;29;20024;-82
2022/05/05 05:42:44;;;;;;;8.85;7.95;;;;;;;;;;4884439;29;20029;-80
2022/05/05 05:45:10;;;;;;;10.65;9.48;;;;;;;;;;4897893;29;20079;-81
2022/05/05 05:47:36;;;;;;;8.10;7.22;;;;;;;;;;4897127;29;20029;-82
2022/05/05 05:50:03;;;;;;;12.95;9.02;;;;;;;;;;4899970;29;20036;-82
2022/05/05 05:52:29;;;;;;;8.40;7.35;;;;;;;;;;4917085;29;20035;-82
2022/05/05 05:54:55;;;;;;;12.93;9.90;;;;;;;;;;4915768;29;20028;-82
2022/05/05 05:57:21;;;;;;;9.75;8.75;;;;;;;;;;4900373;29;20025;-81
2022/05/05 05:59:47;;;;;;;11.02;9.32;;;;;;;;;;4917453;29;20024;-82
2022/05/05 06:04:58;;;;;;;8.80;7.35;;;;;;;;;;4916486;29;20520;-80
2022/05/05 06:07:24;;;;;;;13.70;10.60;;;;;;;;;;4917587;29;20027;-79
2022/05/05 06:09:50;;;;;;;11.00;9.05;;;;;;;;;;4900196;29;20043;-79
2022/05/05 06:12:16;;;;;;;8.95;7.97;;;;;;;;;;4900133;29;20020;-81
2022/05/05 06:14:42;;;;;;;13.00;9.18;;;;;;;;;;4899831;29;20044;-81
2022/05/05 06:17:08;;;;;;;9.65;8.02;;;;;;;;;;4903242;29;20048;-83
2022/05/05 06:19:34;;;;;;;10.10;7.25;;;;;;;;;;4897964;29;20083;-81
2022/05/05 06:22:01;;;;;;;9.20;8.15;;;;;;;;;;4898058;29;20025;-81
2022/05/05 06:24:27;;;;;;;8.30;7.40;;;;;;;;;;4896586;29;20036;-82
2022/05/05 06:26:53;;;;;;;9.25;7.93;;;;;;;;;;4896060;29;20538;-78
2022/05/05 06:29:19;;;;;;;8.27;7.38;;;;;;;;;;4898826;29;20044;-80
2022/05/05 06:31:45;;;;;;;8.75;7.85;;;;;;;;;;4916170;29;20100;-80
2022/05/05 06:34:11;;;;;;;8.98;8.02;;;;;;;;;;4931162;29;20024;-80
2022/05/05 06:36:37;;;;;;;8.80;7.38;;;;;;;;;;4920118;29;20031;-80
2022/05/05 06:39:03;;;;;;;7.68;6.88;;;;;;;;;;4935004;29;20020;-82
2022/05/05 06:41:30;;;;;;;8.48;7.57;;;;;;;;;;4920522;29;20036;-81
2022/05/05 06:43:56;;;;;;;8.77;7.05;;;;;;;;;;4920420;29;20032;-80
2022/05/05 06:46:23;;;;;;;8.48;7.65;;;;;;;;;;4934931;29;20032;-80
2022/05/05 06:48:49;;;;;;;8.00;6.88;;;;;;;;;;4934734;29;20378;-81
2022/05/05 06:51:15;;;;;;;13.10;7.10;;;;;;;;;;4920392;29;20032;-80
2022/05/05 06:53:41;;;;;;;8.65;7.10;;;;;;;;;;4935003;29;20039;-80
2022/05/05 06:56:07;;;;;;;7.20;6.22;;;;;;;;;;4935254;29;20048;-81
2022/05/05 06:58:33;;;;;;;9.50;7.00;;;;;;;;;;4920027;29;20028;-79
2022/05/05 07:03:47;;;;;;;8.25;7.00;;;;;;;;;;4920619;29;20111;-81
2022/05/05 07:06:13;;;;;;;7.35;6.63;;;;;;;;;;4919545;29;20553;-80
2022/05/05 07:11:24;;;;;;;8.18;6.00;;;;;;;;;;4922419;29;20038;-83
2022/05/05 07:13:50;;;;;;;9.38;6.75;;;;;;;;;;4919738;29;20029;-80
2022/05/05 07:16:16;;;;;;;7.05;6.03;;;;;;;;;;4918334;29;20482;-79
2022/05/05 07:18:42;;;;;;;6.70;6.00;;;;;;;;;;4918481;29;20039;-78
2022/05/05 07:21:08;;;;;;;7.40;6.32;;;;;;;;;;4918573;29;20036;-79
2022/05/05 07:23:34;;;;;;;8.35;5.53;;;;;;;;;;4919168;29;20036;-87
2022/05/05 07:26:01;;;;;;;5.03;4.43;;;;;;;;;;4919444;29;20040;-86
2022/05/05 07:28:27;;;;;;;6.88;6.18;;;;;;;;;;4919131;29;20035;-87
2022/05/05 07:30:54;;;;;;;7.82;6.20;;;;;;;;;;4905670;29;20056;-86
2022/05/05 07:33:20;;;;;;;8.77;6.05;;;;;;;;;;4899638;29;20024;-82
2022/05/05 07:35:47;;;;;;;8.40;5.80;;;;;;;;;;4918540;29;20393;-86
2022/05/05 07:38:22;;;;;;;6.95;6.28;;;;;;;;;;4917611;29;20034;-88
2022/05/05 07:41:00;;;;;;;6.18;5.57;;;;;;;;;;4902979;29;20522;-87
2022/05/05 07:43:30;;;;;;;6.03;4.95;;;;;;;;;;4900596;29;20064;-87
2022/05/05 07:45:56;;;;;;;6.80;5.45;;;;;;;;;;4900696;29;20064;-85
2022/05/05 07:48:31;;;;;;;6.32;5.30;;;;;;;;;;4906195;29;20033;-87
2022/05/05 07:50:57;;;;;;;6.18;5.60;;;;;;;;;;4908362;29;20387;-81
2022/05/05 07:53:24;;;;;;;7.95;6.50;;;;;;;;;;4902087;29;20044;-85
2022/05/05 07:55:50;;;;;;;7.65;5.40;;;;;;;;;;4900962;29;20032;-86
2022/05/05 07:58:19;;;;;;;11.48;6.22;;;;;;;;;;4901620;29;20120;-85
2022/05/05 08:00:45;;;;;;;8.43;6.72;;;;;;;;;;4877257;29;20075;-85
2022/05/05 08:03:13;;;;;;;10.05;6.82;;;;;;;;;;4901703;29;20021;-80
2022/05/05 08:05:39;;;;;;;8.55;7.05;;;;;;;;;;4908545;29;20095;-85
2022/05/05 08:08:06;;;;;;;8.82;7.28;;;;;;;;;;4892339;29;20103;-87
2022/05/05 08:10:32;;;;;;;9.15;7.68;;;;;;;;;;4890894;29;20033;-80
2022/05/05 08:12:58;;;;;;;7.40;6.63;;;;;;;;;;4908518;29;20375;-80
2022/05/05 08:15:24;;;;;;;7.55;6.25;;;;;;;;;;4907482;29;20017;-79
2022/05/05 08:17:50;;;;;;;7.07;4.60;;;;;;;;;;4906592;29;20029;-80
2022/05/05 08:20:16;;;;;;;6.00;5.40;;;;;;;;;;4908235;29;20103;-79
2022/05/05 08:22:42;;;;;;;11.63;6.68;;;;;;;;;;4889246;29;20038;-80
2022/05/05 08:30:39;;;;;;;6.03;3.95;;;;;;;;;;4859541;29;1777083;-82
2022/05/05 08:33:05;;;;;;;5.68;4.85;;;;;;;;;;4926835;29;20111;-82
2022/05/05 08:35:32;;;;;;;6.18;5.13;;;;;;;;;;4926082;29;20020;-79
2022/05/05 08:37:58;;;;;;;4.20;3.28;;;;;;;;;;4930742;29;20044;-81
2022/05/05 08:40:25;;;;;;;4.47;4.07;;;;;;;;;;4911208;29;20036;-84
2022/05/05 08:42:51;;;;;;;7.63;4.90;;;;;;;;;;4923474;29;20031;-83
2022/05/05 08:45:17;;;;;;;6.70;4.90;;;;;;;;;;4925443;29;20035;-81
2022/05/05 08:47:45;;;;;;;5.45;4.03;;;;;;;;;;4916411;29;20430;-81
2022/05/05 08:50:12;;;;;;;5.78;4.43;;;;;;;;;;4900904;29;20035;-81
2022/05/05 08:52:48;;;;;;;6.60;5.95;;;;;;;;;;4917820;29;20024;-82
2022/05/05 08:55:16;;;;;;;5.57;4.20;;;;;;;;;;4901112;29;20063;-79
2022/05/05 08:57:43;;;;;;;7.35;5.57;;;;;;;;;;4916539;29;20020;-79
2022/05/05 09:00:10;;;;;;;7.70;5.60;;;;;;;;;;4917080;29;20032;-81
2022/05/05 09:02:36;;;;;;;8.23;6.20;;;;;;;;;;4901075;29;20477;-83
2022/05/05 09:05:03;;;;;;;9.40;5.90;;;;;;;;;;4917692;29;20046;-82
2022/05/05 09:07:46;;;;;;;5.53;4.90;;;;;;;;;;4900982;29;20103;-84
2022/05/05 09:10:13;;;;;;;6.30;5.70;;;;;;;;;;4917909;29;20481;-79
2022/05/05 09:12:39;;;;;;;5.22;4.45;;;;;;;;;;4900947;29;20035;-85
2022/05/05 09:15:14;;;;;;;5.75;4.82;;;;;;;;;;4901278;29;20036;-83
2022/05/05 09:17:40;;;;;;;6.57;4.85;;;;;;;;;;4900962;29;20059;-84
2022/05/05 09:20:06;;;;;;;5.55;4.63;;;;;;;;;;4917229;29;20047;-84
2022/05/05 09:22:33;;;;;;;5.10;4.60;;;;;;;;;;4926394;29;20035;-84
2022/05/05 09:25:01;;;;;;;6.68;5.18;;;;;;;;;;4921929;29;20036;-84
2022/05/05 09:27:34;;;;;;;7.10;4.75;;;;;;;;;;4916172;29;20028;-80
2022/05/05 09:30:01;;;;;;;9.27;6.15;;;;;;;;;;4907008;29;20063;-81
2022/05/05 09:32:28;;;;;;;8.68;6.90;;;;;;;;;;4915250;29;20115;-89
2022/05/05 09:35:03;;;;;;;8.27;7.47;;;;;;;;;;4914739;29;20079;-87
2022/05/05 09:37:30;;;;;;;8.00;6.80;;;;;;;;;;4899625;29;20021;-87
2022/05/05 09:39:58;;;;;;;6.03;5.03;;;;;;;;;;4914149;29;20040;-87
2022/05/05 09:42:37;;;;;;;9.25;6.78;;;;;;;;;;4914840;29;20052;-87
2022/05/05 09:45:16;;;;;;;8.82;5.50;;;;;;;;;;4898767;29;20504;-87
2022/05/05 09:47:46;;;;;;;7.63;6.40;;;;;;;;;;4914432;29;20040;-87
2022/05/05 09:50:13;;;;;;;8.23;7.35;;;;;;;;;;4913558;29;20029;-87
2022/05/05 09:58:13;;;;;;;7.45;6.38;;;;;;;;;;4906073;29;20031;-84
2022/05/05 10:05:52;;;;;;;4.97;4.20;;;;;;;;;;4902105;29;20048;-87
2022/05/05 10:08:21;;;;;;;7.57;6.50;;;;;;;;;;4921039;29;20394;-87
2022/05/05 10:10:47;;;;;;;7.63;6.50;;;;;;;;;;4913867;29;20033;-89
2022/05/05 10:13:13;;;;;;;9.23;7.20;;;;;;;;;;4895713;29;20044;-85
2022/05/05 10:15:40;;;;;;;10.82;6.82;;;;;;;;;;4879908;29;20075;-87
2022/05/05 10:18:06;;;;;;;6.20;4.90;;;;;;;;;;4907052;29;20017;-86
2022/05/05 10:20:33;;;;;;;8.35;6.45;;;;;;;;;;4910177;29;20052;-85
2022/05/05 10:23:17;;;;;;;8.98;8.07;;;;;;;;;;4912442;29;20059;-87
2022/05/05 10:25:43;;;;;;;9.18;8.27;;;;;;;;;;4914467;29;20060;-81
2022/05/05 10:28:42;;;;;;;13.05;9.35;;;;;;;;;;4912024;29;20087;-82
2022/05/05 10:31:12;;;;;;;11.57;9.75;;;;;;;;;;4877307;29;20096;-82
2022/05/05 10:34:01;;;;;;;9.63;8.70;;;;;;;;;;4910573;29;20032;-83
2022/05/05 10:36:30;;;;;;;9.80;8.60;;;;;;;;;;4898157;29;20060;-83
2022/05/05 10:38:57;;;;;;;9.60;7.93;;;;;;;;;;4907246;29;20040;-83
2022/05/05 10:41:39;;;;;;;8.15;7.22;;;;;;;;;;4912806;29;20401;-82
2022/05/05 10:44:20;;;;;;;10.82;7.88;;;;;;;;;;4912550;29;20029;-84
2022/05/05 10:46:52;;;;;;;10.45;7.57;;;;;;;;;;4912174;29;20065;-82
2022/05/05 10:49:34;;;;;;;8.82;7.25;;;;;;;;;;4912066;29;20493;-82
2022/05/05 10:52:09;;;;;;;7.45;6.75;;;;;;;;;;4898281;29;20071;-84
2022/05/05 10:54:42;;;;;;;11.23;8.02;;;;;;;;;;4912914;29;20031;-83
2022/05/05 10:57:26;;;;;;;7.53;6.47;;;;;;;;;;4912285;29;20184;-84
2022/05/05 11:00:12;;;;;;;8.90;7.60;;;;;;;;;;4912082;29;20040;-83
2022/05/05 11:03:01;;;;;;;8.18;7.35;;;;;;;;;;4897050;29;20032;-80
2022/05/05 11:05:27;;;;;;;8.70;7.57;;;;;;;;;;4911293;29;20025;-79
2022/05/05 11:08:08;;;;;;;9.43;7.20;;;;;;;;;;4896382;29;20024;-84
2022/05/05 11:13:39;;;;;;;9.85;8.18;;;;;;;;;;4897769;29;20039;-89
2022/05/05 11:22:28;;;;;;;7.75;6.07;;;;;;;;;;4899161;29;20103;-81
2022/05/05 11:24:53;;;;;;;9.05;8.23;;;;;;;;;;4900886;29;20072;-88
2022/05/05 11:27:21;;;;;;;9.55;8.57;;;;;;;;;;4915367;29;20107;-85
2022/05/05 11:29:51;;;;;;;8.95;8.05;;;;;;;;;;4908875;29;20087;-90
2022/05/05 11:32:17;;;;;;;10.77;9.68;;;;;;;;;;4936792;29;20035;-88
2022/05/05 11:34:45;;;;;;;8.55;7.50;;;;;;;;;;4903374;29;20040;-87
2022/05/05 11:37:11;;;;;;;12.65;10.77;;;;;;;;;;4920623;29;20020;-88
2022/05/05 11:39:38;;;;;;;15.00;11.15;;;;;;;;;;4902955;29;20426;-83
2022/05/05 11:42:04;;;;;;;13.40;12.10;;;;;;;;;;4902261;29;20385;-79
2022/05/05 11:44:31;;;;;;;16.42;10.77;;;;;;;;;;4917945;29;20027;-79
2022/05/05 11:46:58;;;;;;;15.57;12.68;;;;;;;;;;4918252;29;21275;-79
2022/05/05 11:49:32;;;;;;;10.73;9.63;;;;;;;;;;4903627;29;20495;-79
2022/05/05 11:51:58;;;;;;;13.45;10.40;;;;;;;;;;4900929;29;20164;-79
2022/05/05 11:54:29;;;;;;;15.35;12.63;;;;;;;;;;4900579;29;20043;-79
2022/05/05 11:56:56;;;;;;;12.35;11.07;;;;;;;;;;4900714;29;20046;-82
2022/05/05 12:02:17;;;;;;;11.10;8.68;;;;;;;;;;4919818;29;20042;-89
2022/05/05 12:04:50;;;;;;;14.40;11.68;;;;;;;;;;4917875;29;20024;-80
2022/05/05 12:07:20;;;;;;;12.88;11.60;;;;;;;;;;4902194;29;20553;-80
2022/05/05 12:09:48;;;;;;;12.88;11.57;;;;;;;;;;4901932;29;20428;-82
2022/05/05 12:12:18;;;;;;;13.82;11.85;;;;;;;;;;4901557;29;20390;-81
2022/05/05 12:14:48;;;;;;;15.32;13.73;;;;;;;;;;4917384;29;20378;-81
2022/05/05 12:17:20;;;;;;;16.58;13.27;;;;;;;;;;4900348;29;20667;-82
2022/05/05 12:19:48;;;;;;;13.77;12.30;;;;;;;;;;4900727;29;20389;-80
2022/05/05 12:22:15;;;;;;;12.23;11.02;;;;;;;;;;4900265;29;20020;-80
2022/05/05 12:24:45;;;;;;;13.45;11.25;;;;;;;;;;4902837;29;20367;-79
2022/05/05 12:27:12;;;;;;;13.95;12.18;;;;;;;;;;4917155;29;20023;-80
2022/05/05 12:29:39;;;;;;;13.90;12.43;;;;;;;;;;4916478;29;20083;-79
2022/05/05 12:32:09;;;;;;;13.20;11.80;;;;;;;;;;4900088;29;20450;-79
2022/05/05 12:34:35;;;;;;;10.88;9.77;;;;;;;;;;4899848;29;20119;-81
2022/05/05 12:37:15;;;;;;;15.18;12.00;;;;;;;;;;4917169;29;20020;-80
2022/05/05 12:39:57;;;;;;;15.80;14.20;;;;;;;;;;4900125;29;20060;-80
2022/05/05 12:42:24;;;;;;;15.90;13.25;;;;;;;;;;4902787;29;20390;-81
2022/05/05 12:44:52;;;;;;;14.25;12.85;;;;;;;;;;4901296;29;20040;-80
2022/05/05 12:47:23;;;;;;;14.25;12.88;;;;;;;;;;4901324;29;20024;-79
2022/05/05 12:49:49;;;;;;;13.68;12.25;;;;;;;;;;4900872;29;20099;-79
2022/05/05 13:00:28;;;;;;;12.65;10.48;;;;;;;;;;4917451;29;20040;-90
2022/05/05 13:02:55;;;;;;;15.88;11.50;;;;;;;;;;4902248;29;20020;-87
2022/05/05 13:05:23;;;;;;;11.90;10.63;;;;;;;;;;4906607;29;20051;-84
2022/05/05 13:07:49;;;;;;;12.40;9.18;;;;;;;;;;4917227;29;20020;-83
2022/05/05 13:10:15;;;;;;;9.93;8.00;;;;;;;;;;4907741;29;20074;-87
2022/05/05 13:12:41;;;;;;;11.65;7.50;;;;;;;;;;4905549;29;20106;-84
2022/05/05 13:15:08;;;;;;;10.32;7.85;;;;;;;;;;4917145;29;20036;-83
2022/05/05 13:17:34;;;;;;;7.28;6.07;;;;;;;;;;4916983;29;20035;-87
2022/05/05 13:20:00;;;;;;;7.53;6.75;;;;;;;;;;4916925;29;20071;-78
2022/05/05 13:22:26;;;;;;;10.77;6.90;;;;;;;;;;4916854;29;20421;-77
2022/05/05 13:24:52;;;;;;;9.60;7.38;;;;;;;;;;4917644;29;20103;-82
2022/05/05 13:27:18;;;;;;;8.10;6.93;;;;;;;;;;4917865;29;20091;-83
2022/05/05 13:29:47;;;;;;;8.55;7.32;;;;;;;;;;4900386;29;20051;-84
2022/05/05 13:32:13;;;;;;;8.63;6.75;;;;;;;;;;4900969;29;20028;-80
2022/05/05 13:34:39;;;;;;;7.28;5.78;;;;;;;;;;4917462;29;20040;-81
2022/05/05 13:37:05;;;;;;;8.20;5.82;;;;;;;;;;4900642;29;20478;-82
2022/05/05 13:39:32;;;;;;;6.57;4.93;;;;;;;;;;4917720;29;20111;-81
2022/05/05 13:41:58;;;;;;;7.55;5.53;;;;;;;;;;4903878;29;20032;-86
2022/05/05 13:44:26;;;;;;;9.98;6.22;;;;;;;;;;4900049;29;20031;-82
2022/05/05 13:46:52;;;;;;;9.43;7.43;;;;;;;;;;4900712;29;20047;-81
2022/05/05 13:49:18;;;;;;;8.27;6.07;;;;;;;;;;4901160;29;20035;-81
2022/05/05 13:51:44;;;;;;;7.25;6.13;;;;;;;;;;4900703;29;20034;-82
2022/05/05 13:54:10;;;;;;;9.75;7.72;;;;;;;;;;4901146;29;20072;-82
2022/05/05 13:56:37;;;;;;;8.60;6.50;;;;;;;;;;4901056;29;20040;-82
2022/05/05 13:59:03;;;;;;;9.25;7.43;;;;;;;;;;4900484;29;20490;-83
2022/05/05 14:01:29;;;;;;;7.75;6.85;;;;;;;;;;4900908;29;20072;-87
2022/05/05 14:03:55;;;;;;;8.80;6.22;;;;;;;;;;4900791;29;20084;-86
2022/05/05 14:06:21;;;;;;;9.25;6.45;;;;;;;;;;4900699;29;20031;-77
2022/05/05 14:14:17;;;;;;;11.32;6.35;;;;;;;;;;4917583;29;20087;-79
2022/05/05 14:16:43;;;;;;;8.63;6.28;;;;;;;;;;4900238;29;20519;-76
2022/05/05 14:19:10;;;;;;;9.23;7.10;;;;;;;;;;4900298;29;20386;-77
2022/05/05 14:21:36;;;;;;;10.52;6.57;;;;;;;;;;4900224;29;20036;-84
2022/05/05 14:24:02;;;;;;;11.32;8.00;;;;;;;;;;4900375;29;20083;-87
2022/05/05 14:26:29;;;;;;;13.00;7.60;;;;;;;;;;4900122;29;20028;-77
2022/05/05 14:28:55;;;;;;;10.18;6.43;;;;;;;;;;4917035;29;20239;-75
2022/05/05 14:31:21;;;;;;;11.80;6.30;;;;;;;;;;4916851;29;20044;-76
2022/05/05 14:33:47;;;;;;;10.05;6.72;;;;;;;;;;4899884;29;20034;-81
2022/05/05 14:36:13;;;;;;;7.38;6.15;;;;;;;;;;4900024;29;20423;-84
2022/05/05 14:38:39;;;;;;;6.93;5.50;;;;;;;;;;4900268;29;20021;-85
2022/05/05 14:41:06;;;;;;;11.90;6.50;;;;;;;;;;4900002;29;20445;-83
2022/05/05 14:43:32;;;;;;;7.85;6.25;;;;;;;;;;4899986;29;20032;-89
2022/05/05 14:45:59;;;;;;;8.10;5.78;;;;;;;;;;4901173;29;20035;-85
2022/05/05 14:48:26;;;;;;;7.45;5.50;;;;;;;;;;4900500;29;20048;-81
2022/05/05 14:50:52;;;;;;;6.80;5.38;;;;;;;;;;4900291;29;20429;-84
2022/05/05 14:53:18;;;;;;;10.05;5.18;;;;;;;;;;4899722;29;20032;-82
2022/05/05 14:55:45;;;;;;;8.32;5.18;;;;;;;;;;4900287;29;20099;-80
2022/05/05 14:58:11;;;;;;;21.95;5.65;;;;;;;;;;4920346;29;20024;-82
2022/05/05 15:00:38;;;;;;;7.85;5.78;;;;;;;;;;4920015;29;20036;-81
2022/05/05 15:03:05;;;;;;;10.73;5.60;;;;;;;;;;4903574;29;20055;-84
2022/05/05 15:05:31;;;;;;;8.48;5.55;;;;;;;;;;4920841;29;20125;-84
2022/05/05 15:07:57;;;;;;;7.00;5.60;;;;;;;;;;4903798;29;20485;-85
2022/05/05 15:10:24;;;;;;;8.40;5.78;;;;;;;;;;4903587;29;20115;-87
2022/05/05 15:12:53;;;;;;;11.68;5.65;;;;;;;;;;4920420;29;20032;-83
2022/05/05 15:15:19;;;;;;;6.00;4.72;;;;;;;;;;4918963;29;20052;-84
2022/05/05 15:17:45;;;;;;;9.05;5.47;;;;;;;;;;4919636;29;20032;-82
2022/05/05 15:20:12;;;;;;;6.97;5.68;;;;;;;;;;4919214;29;20116;-84
2022/05/05 15:22:39;;;;;;;8.57;5.32;;;;;;;;;;4919337;29;20040;-84
2022/05/05 15:25:06;;;;;;;9.93;5.32;;;;;;;;;;4919061;29;20027;-83
2022/05/05 15:27:33;;;;;;;6.93;5.63;;;;;;;;;;4919066;29;20437;-81
2022/05/05 15:29:59;;;;;;;7.13;5.38;;;;;;;;;;4928594;29;20131;-86
2022/05/05 15:32:27;;;;;;;14.90;5.70;;;;;;;;;;4922202;29;20035;-86
2022/05/05 15:34:53;;;;;;;6.07;5.47;;;;;;;;;;4921959;29;20091;-84
2022/05/05 15:37:20;;;;;;;7.32;6.00;;;;;;;;;;4922262;29;20035;-85
2022/05/05 15:39:46;;;;;;;7.95;5.65;;;;;;;;;;4922367;29;20043;-86
2022/05/05 15:42:12;;;;;;;8.45;4.93;;;;;;;;;;4922005;29;20051;-83